Time;durP1;ratioP1;P1;durP2;ratioP2;P2;SDS_P1;SDS_P2;PMS_P1;PMS_P2;Temp;Humidity;BMP_temperature;BMP_pressure;BME280_temperature;BME280_humidity;BME280_pressure;Samples;Min_cycle;Max_cycle;Signal;HPM_P1;HPM_P2
2023/01/07 00:01:11;;;;;;;;;4.00;3.00;;;;;12.36;67.17;101497.41;4975926;28;45413;-48
2023/01/07 00:03:37;;;;;;;;;3.00;2.00;;;;;12.43;67.30;101499.38;4974212;28;46119;-48
2023/01/07 00:06:08;;;;;;;;;4.00;2.67;;;;;12.46;67.32;101499.06;4975363;28;45287;-49
2023/01/07 00:08:37;;;;;;;;;3.33;3.00;;;;;12.47;66.09;101491.91;4975174;28;45497;-49
2023/01/07 00:11:04;;;;;;;;;4.67;4.67;;;;;12.46;65.98;101492.88;4975658;28;45391;-47
2023/01/07 00:13:30;;;;;;;;;4.67;3.00;;;;;12.44;66.44;101489.53;4975146;28;48065;-49
2023/01/07 00:16:00;;;;;;;;;4.00;3.00;;;;;12.43;66.36;101487.81;4975340;28;45365;-48
2023/01/07 00:18:25;;;;;;;;;3.00;3.00;;;;;12.45;66.78;101480.53;4975434;28;45419;-50
2023/01/07 00:20:50;;;;;;;;;3.00;3.00;;;;;12.44;66.20;101470.84;4975423;28;45406;-46
2023/01/07 00:23:16;;;;;;;;;2.00;2.00;;;;;12.47;66.48;101476.75;4975300;28;45481;-48
2023/01/07 00:25:41;;;;;;;;;3.33;2.00;;;;;12.48;66.00;101462.44;4974459;28;45351;-48
2023/01/07 00:28:07;;;;;;;;;4.67;3.33;;;;;12.50;65.62;101464.94;4975490;28;45310;-50
2023/01/07 00:30:32;;;;;;;;;3.00;3.00;;;;;12.50;65.69;101464.94;4975704;28;45235;-50
2023/01/07 00:33:03;;;;;;;;;3.67;2.00;;;;;12.49;65.94;101450.75;4975149;28;45497;-59
2023/01/07 00:35:30;;;;;;;;;4.33;2.67;;;;;12.51;65.61;101452.44;4975269;28;45452;-46
2023/01/07 00:37:56;;;;;;;;;6.00;4.00;;;;;12.37;65.12;101417.19;4975444;28;45312;-50
2023/01/07 00:40:22;;;;;;;;;7.67;2.00;;;;;12.49;66.09;101431.25;4975228;28;45472;-48
2023/01/07 00:42:53;;;;;;;;;2.00;2.00;;;;;12.45;65.85;101438.69;4975024;28;46066;-48
2023/01/07 00:45:22;;;;;;;;;4.00;2.00;;;;;12.43;65.63;101423.78;4975082;28;45370;-49
2023/01/07 00:47:52;;;;;;;;;2.67;2.67;;;;;12.42;65.98;101417.59;4975252;28;45353;-50
2023/01/07 00:50:19;;;;;;;;;1.00;1.00;;;;;12.41;66.51;101421.28;4974255;28;45362;-51
2023/01/07 00:52:44;;;;;;;;;2.00;2.00;;;;;12.41;65.81;101415.09;4973564;28;45283;-50
2023/01/07 00:55:09;;;;;;;;;3.00;2.00;;;;;12.35;66.30;101397.84;4973194;28;48113;-52
2023/01/07 00:57:35;;;;;;;;;2.67;1.00;;;;;12.34;66.83;101397.97;4973812;28;45376;-53
2023/01/07 01:00:00;;;;;;;;;2.00;2.00;;;;;12.31;66.26;101400.94;4973733;28;45437;-53
2023/01/07 01:02:26;;;;;;;;;2.00;2.00;;;;;12.29;66.02;101394.88;4973498;28;45993;-52
2023/01/07 01:04:51;;;;;;;;;3.00;3.00;;;;;12.27;65.92;101387.03;4973287;28;45271;-52
2023/01/07 01:07:16;;;;;;;;;4.00;2.00;;;;;12.26;66.00;101380.00;4973429;28;45232;-52
2023/01/07 01:09:42;;;;;;;;;3.00;2.00;;;;;12.27;65.93;101376.38;4973685;28;45221;-51
2023/01/07 01:12:07;;;;;;;;;5.67;2.33;;;;;12.28;65.51;101364.69;4974333;28;45425;-47
2023/01/07 01:14:32;;;;;;;;;3.00;2.00;;;;;12.31;66.30;101372.44;4973505;28;45345;-53
2023/01/07 01:16:57;;;;;;;;;2.00;2.00;;;;;12.33;66.29;101377.59;4973277;28;45302;-48
2023/01/07 01:19:23;;;;;;;;;6.00;2.00;;;;;12.34;65.23;101371.28;4973505;28;45342;-48
2023/01/07 01:21:48;;;;;;;;;3.00;1.67;;;;;12.35;65.57;101368.50;4973110;28;45309;-48
2023/01/07 01:24:13;;;;;;;;;6.00;4.00;;;;;12.36;65.75;101364.00;4973148;28;45386;-47
2023/01/07 01:26:39;;;;;;;;;2.00;2.00;;;;;12.36;65.14;101361.31;4973419;28;45449;-45
2023/01/07 01:29:04;;;;;;;;;3.00;2.33;;;;;12.39;65.41;101366.38;4973217;28;45205;-49
2023/01/07 01:31:30;;;;;;;;;1.33;1.00;;;;;12.36;65.51;101359.50;4973206;28;45258;-49
2023/01/07 01:33:56;;;;;;;;;2.00;2.00;;;;;12.37;65.78;101349.66;4973061;28;45350;-49
2023/01/07 01:36:22;;;;;;;;;1.33;1.33;;;;;12.35;65.32;101352.47;4973136;28;45351;-49
2023/01/07 01:38:47;;;;;;;;;2.00;2.00;;;;;12.35;65.47;101349.81;4972006;28;45469;-54
2023/01/07 01:41:15;;;;;;;;;2.00;2.00;;;;;12.36;65.24;101348.81;4972714;28;51036;-49
2023/01/07 01:43:43;;;;;;;;;2.00;2.00;;;;;12.36;65.69;101348.81;4973109;28;45383;-47
2023/01/07 01:46:36;;;;;;;;;1.67;1.67;;;;;12.36;65.58;101345.31;4972908;28;45340;-50
2023/01/07 01:49:11;;;;;;;;;2.25;2.25;;;;;12.37;65.70;101349.66;4934025;28;1137172;-51
2023/01/07 01:51:40;;;;;;;;;3.00;2.00;;;;;12.26;65.27;101326.63;4974179;28;45305;-50
2023/01/07 01:54:10;;;;;;;;;3.67;2.00;;;;;12.34;65.56;101341.94;4973918;28;45268;-50
2023/01/07 01:56:39;;;;;;;;;2.00;2.00;;;;;12.35;65.54;101338.31;4974366;28;45487;-53
2023/01/07 01:59:10;;;;;;;;;5.33;2.00;;;;;12.30;66.12;101327.19;4974224;28;45235;-49
2023/01/07 02:01:36;;;;;;;;;5.33;2.00;;;;;12.30;65.58;101335.19;4973752;28;46163;-49
2023/01/07 02:04:10;;;;;;;;;4.33;3.00;;;;;12.27;66.43;101328.34;4974146;28;45214;-48
2023/01/07 02:06:43;;;;;;;;;2.00;2.00;;;;;12.22;65.96;101315.44;4972773;28;45454;-48
2023/01/07 02:09:10;;;;;;;;;2.67;2.67;;;;;12.23;66.21;101318.94;4973979;28;45425;-47
2023/01/07 02:11:42;;;;;;;;;1.67;1.67;;;;;12.26;66.62;101317.81;4973953;28;45430;-50
2023/01/07 02:14:26;;;;;;;;;2.00;2.00;;;;;12.24;66.30;101317.97;4973693;28;45379;-51
2023/01/07 02:17:02;;;;;;;;;1.67;1.67;;;;;12.24;66.96;101317.97;4973907;28;45476;-52
2023/01/07 02:19:42;;;;;;;;;3.33;3.33;;;;;12.23;66.81;101310.94;4973847;28;45359;-49
2023/01/07 02:22:32;;;;;;;;;4.00;3.00;;;;;12.20;66.86;101314.72;4974946;28;45347;-52
2023/01/07 02:25:32;;;;;;;;;7.33;2.67;;;;;12.18;66.68;101306.03;4973305;28;45350;-47
2023/01/07 02:28:27;;;;;;;;;4.67;3.00;;;;;12.18;66.89;101305.22;4973517;28;45289;-46
2023/01/07 02:31:07;;;;;;;;;4.33;2.33;;;;;12.17;66.68;101301.66;4973793;28;45481;-49
2023/01/07 02:33:56;;;;;;;;;1.00;1.00;;;;;12.17;66.84;101298.16;4974953;28;45299;-49
2023/01/07 02:36:55;;;;;;;;;2.00;2.00;;;;;12.13;67.06;101288.75;4973361;28;45324;-51
2023/01/07 02:39:48;;;;;;;;;3.00;3.00;;;;;12.10;67.45;101300.59;4973350;28;45246;-49
2023/01/07 02:42:29;;;;;;;;;2.00;2.00;;;;;12.07;67.51;101289.34;4973668;28;45291;-53
2023/01/07 02:45:10;;;;;;;;;4.67;2.00;;;;;12.06;67.07;101288.53;4973232;28;47220;-49
2023/01/07 02:47:46;;;;;;;;;6.00;2.00;;;;;12.06;66.80;101282.34;4973120;28;45204;-52
2023/01/07 02:50:11;;;;;;;;;5.00;2.33;;;;;12.05;67.04;101288.63;4975583;28;45762;-49
2023/01/07 02:52:36;;;;;;;;;3.00;3.00;;;;;12.02;66.82;101278.28;4976747;28;45281;-48
2023/01/07 02:55:15;;;;;;;;;3.33;2.00;;;;;11.98;67.00;101273.22;4976192;28;45693;-50
2023/01/07 02:57:40;;;;;;;;;3.00;3.00;;;;;12.01;66.98;101263.25;4976295;28;45458;-47
2023/01/07 03:00:09;;;;;;;;;2.33;2.33;;;;;12.01;67.03;101260.56;4976547;28;45335;-51
2023/01/07 03:03:01;;;;;;;;;3.00;2.00;;;;;11.98;66.48;101257.22;4976556;28;45390;-52
2023/01/07 03:05:50;;;;;;;;;2.00;2.00;;;;;12.00;67.00;101259.75;5016438;28;47155;-53
2023/01/07 03:08:19;;;;;;;;;7.00;2.33;;;;;12.01;66.75;101255.25;5016768;28;45482;-51
2023/01/07 03:11:03;;;;;;;;;2.00;2.00;;;;;12.00;65.90;101246.41;5016334;28;45539;-47
2023/01/07 03:13:32;;;;;;;;;3.00;3.00;;;;;12.03;66.18;101246.13;5016843;28;45366;-49
2023/01/07 03:16:32;;;;;;;;;4.00;2.33;;;;;12.06;65.79;101242.34;5016453;28;45441;-48
2023/01/07 03:19:08;;;;;;;;;3.00;3.00;;;;;12.06;65.67;101231.69;5016330;28;45399;-48
2023/01/07 03:21:35;;;;;;;;;2.00;2.00;;;;;12.04;65.72;101226.47;5016817;28;45462;-48
2023/01/07 03:24:01;;;;;;;;;1.00;1.00;;;;;12.09;65.49;101221.53;5016618;28;45349;-50
2023/01/07 03:26:50;;;;;;;;;3.33;3.00;;;;;12.09;65.29;101215.38;5016046;28;46033;-50
2023/01/07 03:29:17;;;;;;;;;3.00;3.00;;;;;12.11;64.69;101232.91;5016414;28;45355;-47
2023/01/07 03:31:59;;;;;;;;;5.33;1.33;;;;;12.10;65.13;101217.06;5016387;28;45411;-51
2023/01/07 03:34:27;;;;;;;;;3.00;2.00;;;;;12.09;65.27;101210.03;5016715;28;45651;-49
2023/01/07 03:36:56;;;;;;;;;2.00;2.00;;;;;12.08;65.11;101209.19;5015616;28;45554;-51
2023/01/07 03:39:25;;;;;;;;;2.00;2.00;;;;;12.09;64.73;101208.22;5016286;28;45357;-48
2023/01/07 03:44:35;;;;;;;;;1.00;1.00;;;;;12.12;64.36;101196.41;4976159;28;45223;-47
2023/01/07 03:47:02;;;;;;;;;3.00;2.00;;;;;12.10;64.84;101206.41;4975634;28;46255;-50
2023/01/07 03:49:27;;;;;;;;;2.67;2.67;;;;;12.09;64.79;101194.03;4975706;28;45378;-48
2023/01/07 03:51:53;;;;;;;;;1.67;1.67;;;;;12.08;64.86;101189.69;4975781;28;45388;-49
2023/01/07 03:54:20;;;;;;;;;1.67;1.00;;;;;12.06;64.39;101184.53;4975922;28;45445;-48
2023/01/07 03:56:45;;;;;;;;;1.33;1.00;;;;;11.98;64.60;101168.41;4975763;28;45468;-50
2023/01/07 03:59:11;;;;;;;;;2.00;2.00;;;;;12.06;65.13;101171.19;4975542;28;45372;-50
2023/01/07 04:01:36;;;;;;;;;3.00;1.33;;;;;12.06;64.94;101173.84;4974859;28;45453;-48
2023/01/07 04:04:01;;;;;;;;;4.67;2.67;;;;;12.07;64.76;101169.34;4975845;28;45201;-48
2023/01/07 04:06:27;;;;;;;;;1.33;1.33;;;;;12.04;64.33;101156.31;4975033;28;46244;-48
2023/01/07 04:08:52;;;;;;;;;3.00;1.00;;;;;12.04;65.01;101154.47;4975558;28;45373;-52
2023/01/07 04:11:18;;;;;;;;;1.00;1.00;;;;;12.05;64.70;101150.84;4975599;28;45478;-49
2023/01/07 04:13:43;;;;;;;;;3.00;3.00;;;;;11.97;65.10;101146.25;4975764;28;45383;-52
2023/01/07 04:16:08;;;;;;;;;1.00;1.00;;;;;11.98;64.60;101142.56;4975159;28;46111;-53
2023/01/07 04:18:34;;;;;;;;;2.00;2.00;;;;;11.98;64.79;101139.91;4975530;28;45306;-48
2023/01/07 04:20:59;;;;;;;;;2.00;2.00;;;;;12.01;64.79;101130.78;4975431;28;45361;-48
2023/01/07 04:23:24;;;;;;;;;4.00;2.67;;;;;12.02;64.70;101126.28;4975639;28;45334;-52
2023/01/07 04:25:50;;;;;;;;;2.00;2.00;;;;;12.03;64.77;101125.31;4975226;28;47130;-49
2023/01/07 04:28:15;;;;;;;;;1.67;1.67;;;;;11.92;64.87;101102.31;4974963;28;50586;-51
2023/01/07 04:30:41;;;;;;;;;3.00;1.67;;;;;11.92;64.72;101100.50;4975476;28;45665;-49
2023/01/07 04:33:06;;;;;;;;;3.00;3.00;;;;;11.91;65.00;101101.47;4975486;28;45426;-48
2023/01/07 04:35:32;;;;;;;;;3.00;0.00;;;;;11.82;65.42;101091.66;4975129;28;45401;-52
2023/01/07 04:37:58;;;;;;;;;2.00;2.00;;;;;11.83;65.30;101092.53;4975248;28;45308;-51
2023/01/07 04:40:24;;;;;;;;;2.00;2.00;;;;;11.68;65.55;101077.00;4975002;28;45311;-50
2023/01/07 04:42:49;;;;;;;;;3.00;3.00;;;;;11.69;65.48;101073.34;4975506;28;45310;-51
2023/01/07 04:45:15;;;;;;;;;2.00;2.00;;;;;11.62;65.54;101069.56;4975156;28;46285;-48
2023/01/07 04:47:40;;;;;;;;;1.00;1.00;;;;;11.63;66.25;101073.94;4975235;28;45416;-53
2023/01/07 04:50:06;;;;;;;;;2.33;2.33;;;;;11.60;66.14;101068.91;4974997;28;46780;-53
2023/01/07 04:52:31;;;;;;;;;3.00;2.67;;;;;11.57;66.01;101058.50;4976926;28;45567;-52
2023/01/07 04:54:56;;;;;;;;;3.33;3.33;;;;;11.55;66.47;101051.69;4975250;28;46624;-52
2023/01/07 04:57:22;;;;;;;;;2.00;2.00;;;;;11.51;66.10;101055.63;4974761;28;46203;-48
2023/01/07 04:59:47;;;;;;;;;6.00;3.00;;;;;11.50;66.47;101052.09;4975179;28;45238;-51
2023/01/07 05:02:12;;;;;;;;;3.00;3.00;;;;;11.47;66.57;101044.41;4975410;28;45317;-51
2023/01/07 05:04:38;;;;;;;;;3.00;3.00;;;;;11.45;67.03;101049.00;4974864;28;46064;-50
2023/01/07 05:07:03;;;;;;;;;2.33;2.33;;;;;11.37;66.94;101033.75;4975175;28;45311;-52
2023/01/07 05:09:28;;;;;;;;;6.00;2.00;;;;;11.32;67.12;101032.50;4975125;28;45438;-52
2023/01/07 05:11:54;;;;;;;;;6.33;2.00;;;;;11.32;67.43;101032.50;4976090;28;45341;-53
2023/01/07 05:14:19;;;;;;;;;3.67;2.67;;;;;11.30;67.92;101018.53;4974761;28;45941;-52
2023/01/07 05:16:44;;;;;;;;;2.00;2.00;;;;;11.24;67.63;101010.09;4974775;28;45432;-51
2023/01/07 05:19:10;;;;;;;;;8.00;3.67;;;;;11.19;68.39;101014.19;4974998;28;45288;-52
2023/01/07 05:21:36;;;;;;;;;5.67;5.33;;;;;11.15;68.38;101010.97;4975083;28;45355;-53
2023/01/07 05:24:01;;;;;;;;;2.00;2.00;;;;;11.10;68.55;101009.72;4974513;28;45209;-49
2023/01/07 05:26:27;;;;;;;;;5.00;3.00;;;;;11.03;69.28;101009.44;4974491;28;45373;-51
2023/01/07 05:28:52;;;;;;;;;5.67;1.00;;;;;10.99;69.12;101008.91;4974759;28;45243;-50
2023/01/07 05:31:19;;;;;;;;;6.67;6.00;;;;;10.94;69.57;101005.00;4975113;28;45371;-49
2023/01/07 05:33:44;;;;;;;;;6.00;3.33;;;;;10.91;69.78;101010.59;4974650;28;46443;-47
2023/01/07 05:36:10;;;;;;;;;3.00;3.00;;;;;10.88;69.73;101000.25;4974319;28;45444;-51
2023/01/07 05:38:35;;;;;;;;;4.00;4.00;;;;;10.86;70.39;100996.88;4974751;28;45321;-52
2023/01/07 05:41:00;;;;;;;;;6.00;3.00;;;;;10.82;70.08;100995.47;4974741;28;45309;-50
2023/01/07 05:43:26;;;;;;;;;5.33;5.33;;;;;10.78;70.48;100994.09;4974688;28;46108;-47
2023/01/07 05:45:51;;;;;;;;;4.33;2.00;;;;;10.74;70.83;100988.19;4974463;28;45448;-50
2023/01/07 05:48:17;;;;;;;;;5.67;4.00;;;;;10.72;70.81;100984.84;4974383;28;45416;-51
2023/01/07 05:50:42;;;;;;;;;5.33;5.33;;;;;10.69;70.52;100987.78;4974600;28;45219;-52
2023/01/07 05:53:07;;;;;;;;;5.00;5.00;;;;;10.65;70.74;100986.41;4974178;28;45967;-51
2023/01/07 05:55:36;;;;;;;;;8.33;5.00;;;;;10.65;71.17;100986.41;4974379;28;45237;-49
2023/01/07 05:58:01;;;;;;;;;5.33;5.33;;;;;10.62;70.90;100984.88;4974318;28;45305;-48
2023/01/07 06:00:27;;;;;;;;;3.00;3.00;;;;;10.60;71.08;100984.16;4974557;28;45480;-48
2023/01/07 06:02:52;;;;;;;;;7.33;6.00;;;;;10.57;70.70;100987.09;4974222;28;46054;-52
2023/01/07 06:05:17;;;;;;;;;5.67;5.00;;;;;10.54;70.89;100995.38;4974342;28;45359;-48
2023/01/07 06:07:43;;;;;;;;;7.33;6.00;;;;;10.52;70.83;100992.00;4974377;28;45383;-50
2023/01/07 06:10:09;;;;;;;;;10.33;9.67;;;;;10.48;71.00;100991.44;4974247;28;45473;-49
2023/01/07 06:12:35;;;;;;;;;6.67;6.67;;;;;10.44;70.63;100989.19;4974904;28;46631;-50
2023/01/07 06:15:00;;;;;;;;;8.33;7.33;;;;;10.40;70.98;100974.50;4974168;28;45391;-49
2023/01/07 06:17:26;;;;;;;;;8.00;7.33;;;;;10.23;71.65;100966.19;4974082;28;45247;-49
2023/01/07 06:19:51;;;;;;;;;10.67;10.67;;;;;10.33;71.45;100973.41;4974081;28;45245;-47
2023/01/07 06:22:16;;;;;;;;;12.00;6.00;;;;;10.26;71.59;100978.41;4973847;28;47061;-48
2023/01/07 06:24:42;;;;;;;;;10.00;8.33;;;;;10.28;71.78;100987.13;4975492;28;47263;-50
2023/01/07 06:27:09;;;;;;;;;8.00;8.00;;;;;10.27;71.85;100993.38;4976967;28;45297;-48
2023/01/07 06:29:35;;;;;;;;;11.67;7.00;;;;;10.20;71.65;100978.97;4977313;28;45236;-47
2023/01/07 06:32:00;;;;;;;;;12.00;11.00;;;;;10.23;71.61;100984.81;4976700;28;47006;-48
2023/01/07 06:34:26;;;;;;;;;17.00;11.67;;;;;10.16;71.77;100973.06;4976701;28;45282;-52
2023/01/07 06:36:51;;;;;;;;;15.33;11.33;;;;;10.23;71.57;100982.16;4976824;28;45306;-52
2023/01/07 06:39:16;;;;;;;;;9.33;9.33;;;;;10.22;71.24;100982.31;4977033;28;45455;-46
2023/01/07 06:41:42;;;;;;;;;11.00;7.00;;;;;10.21;71.61;100983.28;4976702;28;46301;-49
2023/01/07 06:44:07;;;;;;;;;16.33;12.33;;;;;10.17;71.33;100982.72;4976635;28;45477;-47
2023/01/07 06:46:32;;;;;;;;;10.33;10.00;;;;;10.15;71.46;100979.34;4977007;28;45461;-49
2023/01/07 06:48:58;;;;;;;;;12.33;10.33;;;;;10.12;71.58;100976.16;4976921;28;45343;-48
2023/01/07 06:51:23;;;;;;;;;11.33;10.00;;;;;10.14;71.05;100984.81;4976553;28;46241;-48
2023/01/07 06:53:48;;;;;;;;;16.67;12.33;;;;;10.10;71.22;100980.75;4976469;28;45397;-48
2023/01/07 06:56:14;;;;;;;;;19.67;14.67;;;;;10.05;71.63;100975.84;4976686;28;45261;-50
2023/01/07 06:58:39;;;;;;;;;17.00;12.33;;;;;10.05;71.78;100969.69;4976466;28;45376;-48
2023/01/07 07:01:06;;;;;;;;;11.00;9.00;;;;;10.02;71.62;100969.97;4976450;28;45294;-49
2023/01/07 07:03:31;;;;;;;;;11.67;7.33;;;;;9.98;71.70;100962.25;4976829;28;45402;-50
2023/01/07 07:05:57;;;;;;;;;18.33;15.00;;;;;9.95;71.46;100953.75;4976434;28;45384;-47
2023/01/07 07:08:22;;;;;;;;;12.67;12.00;;;;;9.93;71.45;100939.72;4976722;28;45302;-46
2023/01/07 07:10:47;;;;;;;;;12.00;12.00;;;;;9.90;71.81;100942.66;4976295;28;45386;-49
2023/01/07 07:13:12;;;;;;;;;14.00;14.00;;;;;9.87;71.34;100945.63;4976261;28;45322;-48
2023/01/07 07:15:38;;;;;;;;;17.67;14.00;;;;;9.87;71.46;100950.94;4976479;28;45219;-49
2023/01/07 07:18:04;;;;;;;;;12.67;10.67;;;;;9.82;71.37;100929.22;4976448;28;45443;-47
2023/01/07 07:20:29;;;;;;;;;11.67;11.67;;;;;9.77;71.51;100936.78;4976332;28;46468;-47
2023/01/07 07:22:54;;;;;;;;;10.67;9.33;;;;;9.80;71.45;100937.34;4977325;28;45224;-49
2023/01/07 07:25:20;;;;;;;;;10.00;6.67;;;;;9.78;71.70;100936.66;4977925;28;45713;-50
2023/01/07 07:27:46;;;;;;;;;8.33;6.33;;;;;9.74;72.14;100930.75;4976622;28;45187;-49
2023/01/07 07:30:13;;;;;;;;;24.67;16.33;;;;;9.71;72.33;100931.03;4975977;28;46426;-49
2023/01/07 07:32:39;;;;;;;;;20.67;18.67;;;;;9.68;71.72;100933.94;4975945;28;45428;-48
2023/01/07 07:35:05;;;;;;;;;24.00;20.67;;;;;9.66;71.68;100938.56;4975827;28;45357;-49
2023/01/07 07:37:30;;;;;;;;;27.00;19.33;;;;;9.65;72.13;100934.25;4977434;28;45477;-47
2023/01/07 07:39:56;;;;;;;;;21.33;18.33;;;;;9.65;71.76;100933.38;4975764;28;45286;-50
2023/01/07 07:42:21;;;;;;;;;19.00;16.67;;;;;9.59;71.84;100924.16;4975606;28;45787;-49
2023/01/07 07:44:46;;;;;;;;;15.67;14.33;;;;;9.62;71.75;100923.03;4976023;28;45382;-47
2023/01/07 07:47:12;;;;;;;;;12.67;10.67;;;;;9.60;71.87;100920.50;4976048;28;45241;-48
2023/01/07 07:49:37;;;;;;;;;10.67;7.67;;;;;9.63;71.74;100916.75;4975722;28;46063;-48
2023/01/07 07:52:02;;;;;;;;;10.00;7.00;;;;;9.60;71.50;100917.84;4975822;28;45457;-50
2023/01/07 07:54:28;;;;;;;;;6.67;6.67;;;;;9.57;71.30;100915.50;4975842;28;45419;-48
2023/01/07 07:56:53;;;;;;;;;15.67;13.67;;;;;9.55;71.50;100912.13;4976033;28;45368;-49
2023/01/07 07:59:18;;;;;;;;;6.67;6.33;;;;;9.49;71.25;100904.69;4977369;28;45404;-48
2023/01/07 08:01:44;;;;;;;;;19.00;14.33;;;;;9.49;71.54;100910.84;4975758;28;45393;-49
2023/01/07 08:04:09;;;;;;;;;19.33;15.00;;;;;9.52;71.03;100922.16;4975762;28;45369;-47
2023/01/07 08:06:34;;;;;;;;;26.25;19.00;;;;;9.45;71.35;100901.47;4975992;28;45365;-48
2023/01/07 08:09:00;;;;;;;;;29.75;24.50;;;;;9.44;71.31;100891.00;4975048;28;45254;-48
2023/01/07 08:11:25;;;;;;;;;24.75;19.00;;;;;9.53;71.70;100905.28;4975431;28;45350;-51
2023/01/07 08:13:51;;;;;;;;;18.00;17.75;;;;;9.55;71.06;100908.63;4975434;28;45446;-48
2023/01/07 08:16:16;;;;;;;;;17.67;15.33;;;;;9.57;71.16;100906.69;4975981;28;45302;-47
2023/01/07 08:18:41;;;;;;;;;18.67;14.00;;;;;9.59;71.29;100912.69;4975312;28;47533;-48
2023/01/07 08:21:07;;;;;;;;;15.67;11.67;;;;;9.62;70.92;100913.25;4975539;28;45322;-51
2023/01/07 08:23:33;;;;;;;;;8.67;6.67;;;;;9.56;70.66;100897.84;4975706;28;45505;-48
2023/01/07 08:26:02;;;;;;;;;7.00;7.00;;;;;9.67;70.96;100911.03;4975631;28;45494;-51
2023/01/07 08:28:31;;;;;;;;;14.00;14.00;;;;;9.67;70.90;100908.38;4975149;28;45303;-52
2023/01/07 08:30:56;;;;;;;;;18.00;12.00;;;;;9.63;70.65;100888.38;4975078;28;45223;-51
2023/01/07 08:33:22;;;;;;;;;24.67;18.33;;;;;9.74;70.08;100900.72;4975229;28;45266;-52
2023/01/07 08:35:47;;;;;;;;;14.67;10.00;;;;;9.70;69.92;100878.88;4975545;28;45555;-53
2023/01/07 08:38:12;;;;;;;;;17.67;14.33;;;;;9.80;70.18;100888.69;4973446;28;53524;-54
2023/01/07 08:40:38;;;;;;;;;18.67;12.67;;;;;9.88;69.69;100880.84;4975176;28;46934;-51
2023/01/07 08:43:06;;;;;;;;;21.33;16.67;;;;;9.88;69.87;100872.88;4988382;28;45396;-52
2023/01/07 08:45:32;;;;;;;;;11.67;11.67;;;;;9.99;69.43;100873.59;4975472;28;45389;-52
2023/01/07 08:47:57;;;;;;;;;18.00;14.00;;;;;10.03;69.00;100873.28;4973775;28;45352;-48
2023/01/07 08:50:28;;;;;;;;;13.33;9.00;;;;;10.07;69.50;100869.38;4974491;28;45229;-53
2023/01/07 08:52:54;;;;;;;;;18.00;11.33;;;;;10.15;68.96;100866.84;4974878;28;45371;-51
2023/01/07 08:55:20;;;;;;;;;15.33;13.33;;;;;10.19;69.11;100852.31;4974908;28;45306;-50
2023/01/07 08:57:46;;;;;;;;;12.67;11.33;;;;;10.26;68.87;100853.47;4974210;28;45314;-52
2023/01/07 09:00:16;;;;;;;;;17.33;13.33;;;;;10.31;68.74;100845.06;4974498;28;45357;-49
2023/01/07 09:02:42;;;;;;;;;11.00;11.00;;;;;10.26;68.62;100826.88;4974709;28;45559;-50
2023/01/07 09:05:08;;;;;;;;;12.00;10.00;;;;;10.39;68.02;100837.19;4975194;28;45511;-49
2023/01/07 09:07:34;;;;;;;;;6.33;5.33;;;;;10.42;68.01;100827.13;4974391;28;46398;-52
2023/01/07 09:09:59;;;;;;;;;7.00;7.00;;;;;10.43;68.08;100825.31;4974231;28;45339;-47
2023/01/07 09:12:24;;;;;;;;;9.33;9.00;;;;;10.55;67.65;100831.28;4974794;28;45372;-49
2023/01/07 09:14:50;;;;;;;;;4.33;4.33;;;;;10.60;67.96;100824.53;4974655;28;45515;-49
2023/01/07 09:17:15;;;;;;;;;6.00;6.00;;;;;10.65;67.13;100827.59;4974545;28;45981;-52
2023/01/07 09:19:40;;;;;;;;;6.00;6.00;;;;;10.73;67.59;100813.59;4974494;28;45417;-50
2023/01/07 09:22:06;;;;;;;;;6.67;6.67;;;;;10.71;67.04;100789.78;4974527;28;45310;-49
2023/01/07 09:24:31;;;;;;;;;9.00;6.33;;;;;10.93;66.50;100817.00;4974912;28;45417;-51
2023/01/07 09:26:56;;;;;;;;;6.00;6.00;;;;;11.18;66.20;100792.34;4974278;28;47637;-52
2023/01/07 09:29:21;;;;;;;;;12.33;11.00;;;;;11.53;65.27;100790.72;4974519;28;50132;-53
2023/01/07 09:31:47;;;;;;;;;7.00;6.33;;;;;11.83;64.21;100778.00;4974662;28;45366;-53
2023/01/07 09:34:12;;;;;;;;;7.33;7.00;;;;;12.31;63.49;100774.06;4974703;28;45299;-51
2023/01/07 09:36:37;;;;;;;;;10.00;10.00;;;;;12.80;63.05;100766.28;4974550;28;51403;-53
2023/01/07 09:39:03;;;;;;;;;9.33;8.00;;;;;13.75;59.95;100764.22;4973552;28;45515;-50
2023/01/07 09:41:52;;;;;;;;;13.67;12.67;;;;;14.99;57.56;100756.56;4974506;28;45334;-52
2023/01/07 09:44:44;;;;;;;;;11.33;9.00;;;;;15.94;54.31;100741.03;4974734;28;45315;-50
2023/01/07 09:47:12;;;;;;;;;11.67;8.00;;;;;16.36;52.64;100753.03;4974241;28;45398;-51
2023/01/07 09:49:38;;;;;;;;;14.33;14.00;;;;;16.64;51.58;100749.66;4973997;28;45266;-51
2023/01/07 09:52:12;;;;;;;;;29.33;26.33;;;;;16.78;51.54;100742.69;4974295;28;45397;-52
2023/01/07 09:54:39;;;;;;;;;25.00;22.00;;;;;16.71;51.44;100740.69;4974633;28;45377;-53
2023/01/07 09:57:05;;;;;;;;;15.33;15.00;;;;;16.60;52.76;100735.81;4973752;28;45449;-54
2023/01/07 09:59:31;;;;;;;;;22.67;21.00;;;;;16.25;51.96;100737.34;4974949;28;45434;-50
2023/01/07 10:02:33;;;;;;;;;18.00;17.00;;;;;15.82;52.71;100733.59;4977338;28;45471;-53
2023/01/07 10:05:20;;;;;;;;;14.33;14.00;;;;;15.36;54.10;100738.94;4977196;28;45338;-49
2023/01/07 10:07:59;;;;;;;;;24.33;18.33;;;;;15.03;53.37;100738.31;4976763;28;45364;-54
2023/01/07 10:10:30;;;;;;;;;35.00;28.33;;;;;14.72;55.22;100742.63;4976814;28;45342;-51
2023/01/07 10:13:17;;;;;;;;;32.33;27.33;;;;;14.62;55.43;100739.34;4977000;28;45362;-50
2023/01/07 10:15:54;;;;;;;;;22.33;19.67;;;;;14.11;55.51;100733.41;4978746;28;45598;-51
2023/01/07 10:19:18;;;;;;;;;46.33;36.67;;;;;13.54;57.17;100740.63;4976657;28;46028;-49
2023/01/07 10:21:54;;;;;;;;;34.00;27.00;;;;;13.04;58.16;100739.69;4938710;28;45329;-50
2023/01/07 10:24:28;;;;;;;;;12.67;11.67;;;;;12.76;58.59;100736.41;4939079;28;45292;-53
2023/01/07 10:26:57;;;;;;;;;12.00;12.00;;;;;12.55;59.16;100738.66;4939159;28;45484;-51
2023/01/07 10:29:36;;;;;;;;;25.00;21.50;;;;;12.35;60.84;100746.91;4938967;28;46361;-51
2023/01/07 10:32:13;;;;;;;;;23.00;19.67;;;;;12.21;60.81;100724.28;4938748;28;45411;-50
2023/01/07 10:34:44;;;;;;;;;20.00;16.00;;;;;12.07;60.48;100700.88;4938955;28;45287;-51
2023/01/07 10:37:20;;;;;;;;;18.00;15.33;;;;;12.01;60.29;100714.88;4938923;28;45648;-50
2023/01/07 10:40:11;;;;;;;;;43.33;29.33;;;;;11.95;61.10;100710.97;4938486;28;47197;-51
2023/01/07 10:43:14;;;;;;;;;23.33;15.00;;;;;12.00;61.29;100710.50;4938523;28;45463;-50
2023/01/07 10:46:00;;;;;;;;;27.33;23.33;;;;;11.99;61.14;100692.84;4938594;28;45440;-49
2023/01/07 10:48:47;;;;;;;;;32.00;29.00;;;;;11.94;60.74;100692.47;4938564;28;45363;-48
2023/01/07 10:51:18;;;;;;;;;43.33;34.67;;;;;11.93;60.83;100682.81;4938592;28;46446;-51
2023/01/07 10:54:12;;;;;;;;;20.33;17.00;;;;;11.94;60.73;100681.81;4938649;28;45469;-52
2023/01/07 10:56:46;;;;;;;;;34.33;27.33;;;;;12.09;60.91;100674.06;4919284;28;45345;-49
2023/01/07 10:59:18;;;;;;;;;21.33;18.67;;;;;12.60;60.21;100670.47;4917222;28;45622;-49
2023/01/07 11:01:56;;;;;;;;;27.33;19.67;;;;;12.58;60.35;100663.63;4916121;28;46101;-48
2023/01/07 11:04:22;;;;;;;;;46.00;31.67;;;;;12.48;59.56;100669.09;4916266;28;45489;-50
2023/01/07 11:07:05;;;;;;;;;24.00;22.00;;;;;12.35;59.81;100663.38;4915843;28;45765;-51
2023/01/07 11:09:42;;;;;;;;;20.33;15.33;;;;;12.15;60.41;100647.59;4915047;28;45595;-52
2023/01/07 11:12:43;;;;;;;;;23.00;18.67;;;;;12.21;60.48;100652.28;4915833;28;45568;-49
2023/01/07 11:15:18;;;;;;;;;54.25;38.25;;;;;12.23;60.77;100642.31;4912831;28;45535;-52
2023/01/07 11:18:01;;;;;;;;;56.00;43.25;;;;;12.33;60.20;100620.84;4915873;28;45537;-48
2023/01/07 11:20:50;;;;;;;;;23.00;22.00;;;;;12.50;60.21;100632.41;4916039;28;45411;-52
2023/01/07 11:23:35;;;;;;;;;36.67;30.67;;;;;13.13;59.03;100618.50;4916032;28;45485;-51
2023/01/07 11:26:06;;;;;;;;;32.67;28.67;;;;;13.26;58.48;100625.22;4915762;28;45487;-48
2023/01/07 11:28:33;;;;;;;;;33.33;25.67;;;;;13.10;58.96;100629.50;4915843;28;45350;-50
2023/01/07 11:31:00;;;;;;;;;19.00;15.00;;;;;13.55;56.44;100587.28;4915940;28;45528;-50
2023/01/07 11:33:37;;;;;;;;;7.00;7.00;;;;;13.86;56.38;100596.25;4943578;28;47305;-51
2023/01/07 11:36:04;;;;;;;;;8.00;8.00;;;;;13.66;56.63;100595.78;4975896;28;45415;-51